• Join FlightAware (Why Join?)
  • Login
  • US Flag 
01:21AM EDT


 

Airport Tracker/Info


-or-


 

Live Flight TrackerFlight Track Log ✈ FDX1347 ✈ 20-May-2013 ✈ KALB - KMEM

Flight Track Log - Related Links

Times and Time Zones

All times are in EDT time to prevent confusion due to time zone crossing. See the FDX1347 flight status page for this flight to view local times or setup timezone preferences in your user account.

Time Position Orientation Groundspeed Altitude Reporting Facility
EDT Latitude Longitude Course Direction KTS MPH feet Rate Location/Type
09:52PM 42.7236 -73.8081 187° South 155 178 1,600  Level Boston Center
09:53PM 42.7089 -73.8106 187° South 162 186 2,100 2,100 Climbing Boston Center
09:54PM 42.6417 -73.8683 212° Southwest 231 266 5,700 2,520 Climbing Boston Center
09:55PM 42.6672 -73.9647 290° West 221 254 8,800 2,340 Climbing Boston Center
09:56PM 42.6431 -74.0686 252° West 255 293 10,500 1,980 Climbing Boston Center
09:57PM 42.5892 -74.1828 237° Southwest 322 371 12,800 2,040 Climbing Boston Center
10:04PM 42.2180 -74.9840 237° Southwest 435 501 25,100 1,920 Climbing FlightAware
10:04PM 42.1690 -75.0900 238° Southwest 448 516 26,200 1,680 Climbing FlightAware
10:05PM 42.1190 -75.1970 238° Southwest 456 525 27,500 1,560 Climbing FlightAware
10:06PM 42.0570 -75.3320 238° Southwest 467 537 28,800 1,200 Climbing FlightAware
10:07PM 42.0060 -75.4510 240° Southwest 468 539 29,600 1,620 Climbing FlightAware
10:07PM 41.9600 -75.5650 242° Southwest 474 545 31,400 1,920 Climbing FlightAware
10:09PM 41.8400 -75.8550 241° Southwest 472 543 34,800 1,800 Climbing FlightAware
10:10PM 41.7960 -75.9600 241° Southwest 462 532 36,100 1,980 Climbing FlightAware
10:10PM 41.7735 -76.0145 241° Southwest 458 527 36,700 1,860 Climbing FlightAware ADS-B
10:11PM 41.7404 -76.0929 241° Southwest 450 518 37,600 1,200 Climbing FlightAware ADS-B
10:11PM 41.7073 -76.1703 240° Southwest 447 514 38,000 360 Climbing FlightAware ADS-B
10:12PM 41.6760 -76.2445 241° Southwest 443 510 38,000  Level FlightAware ADS-B
10:13PM 41.6396 -76.3303 240° Southwest 443 510 38,000  Level FlightAware ADS-B
10:13PM 41.6078 -76.4068 241° Southwest 446 513 38,000  Level FlightAware ADS-B
10:14PM 41.5772 -76.4788 240° Southwest 449 517 38,000  Level FlightAware ADS-B
10:14PM 41.5450 -76.5535 240° Southwest 450 518 38,000  Level FlightAware ADS-B
10:15PM 41.5137 -76.6282 241° Southwest 451 519 38,000  Level FlightAware ADS-B
10:15PM 41.4798 -76.7056 240° Southwest 451 519 38,000  Level FlightAware ADS-B
10:16PM 41.4456 -76.7851 240° Southwest 451 519 38,000  Level FlightAware ADS-B
10:16PM 41.4137 -76.8598 240° Southwest 450 518 38,000  Level FlightAware ADS-B
10:17PM 41.3802 -76.9365 240° Southwest 450 518 38,000  Level FlightAware ADS-B
10:17PM 41.3489 -77.0109 241° Southwest 450 518 38,000  Level FlightAware ADS-B
10:18PM 41.3165 -77.0851 240° Southwest 449 517 38,000  Level FlightAware ADS-B
10:18PM 41.2846 -77.1567 239° Southwest 449 517 38,000  Level FlightAware ADS-B
10:19PM 41.2502 -77.2355 240° Southwest 449 517 38,000  Level FlightAware ADS-B
10:19PM 41.2106 -77.3262 240° Southwest 450 518 38,000  Level FlightAware ADS-B
10:20PM 41.1742 -77.4097 240° Southwest 450 518 38,000  Level FlightAware ADS-B
10:21PM 41.1341 -77.5006 240° Southwest 453 521 38,000  Level FlightAware ADS-B
10:21PM 41.0975 -77.5845 240° Southwest 454 522 38,000  Level FlightAware ADS-B
10:22PM 41.0548 -77.6802 239° Southwest 454 522 38,000  Level FlightAware ADS-B
10:23PM 41.0100 -77.7810 240° Southwest 456 525 38,000  Level FlightAware
10:23PM 40.9791 -77.8511 240° Southwest 457 526 38,000  Level FlightAware ADS-B
10:24PM 40.9500 -77.9170 240° Southwest 457 526 38,000  Level FlightAware
10:24PM 40.9300 -77.9619 239° Southwest 458 527 38,000  Level FlightAware ADS-B
10:25PM 40.8530 -78.1180 237° Southwest 455 524 38,000  Level FlightAware
10:26PM 40.8060 -78.2080 235° Southwest 455 524 38,000  Level FlightAware
10:26PM 40.7580 -78.3050 237° Southwest 455 524 38,000  Level FlightAware
10:27PM 40.7050 -78.4090 236° Southwest 456 525 38,000  Level FlightAware
10:28PM 40.6590 -78.4990 236° Southwest 454 522 38,000  Level FlightAware
10:29PM 40.6110 -78.5930 236° Southwest 451 519 38,000  Level FlightAware
10:29PM 40.5630 -78.6880 236° Southwest 449 517 38,000  Level FlightAware
10:30PM 40.5090 -78.7920 236° Southwest 447 514 38,000  Level FlightAware
10:31PM 40.4580 -78.8910 236° Southwest 446 513 38,000  Level FlightAware
10:31PM 40.4110 -78.9800 235° Southwest 444 511 38,000  Level FlightAware
10:32PM 40.3580 -79.0820 236° Southwest 442 509 38,000  Level FlightAware
10:33PM 40.3120 -79.1710 236° Southwest 440 506 38,000  Level FlightAware
10:33PM 40.2670 -79.2590 236° Southwest 441 507 38,000  Level FlightAware
10:34PM 40.2150 -79.3580 236° Southwest 442 509 38,000  Level FlightAware
10:35PM 40.1690 -79.4460 236° Southwest 442 509 38,000  Level FlightAware
10:35PM 40.1230 -79.5320 235° Southwest 442 509 38,000  Level FlightAware
10:36PM 40.0710 -79.6310 236° Southwest 442 509 38,000  Level FlightAware
10:37PM 40.0230 -79.7210 235° Southwest 441 507 38,000  Level FlightAware
10:38PM 39.9710 -79.8190 235° Southwest 440 506 38,000  Level FlightAware
10:38PM 39.9270 -79.9070 237° Southwest 439 505 38,000  Level FlightAware
10:39PM 39.8840 -79.9940 237° Southwest 439 505 38,000  Level FlightAware
10:40PM 39.8320 -80.0960 236° Southwest 440 506 38,000  Level FlightAware
10:40PM 39.7900 -80.1780 236° Southwest 440 506 38,000  Level FlightAware
10:41PM 39.7470 -80.2640 237° Southwest 441 507 38,000  Level FlightAware
10:42PM 39.6930 -80.3700 237° Southwest 441 507 38,000  Level FlightAware
10:42PM 39.6470 -80.4600 236° Southwest 441 507 38,000  Level FlightAware
10:43PM 39.5970 -80.5570 236° Southwest 441 507 38,000  Level FlightAware
10:44PM 39.5520 -80.6430 236° Southwest 440 506 38,000  Level FlightAware
10:45PM 39.5070 -80.7310 236° Southwest 441 507 38,000  Level FlightAware
10:45PM 39.4600 -80.8230 237° Southwest 442 509 38,000  Level FlightAware
10:46PM 39.4030 -80.9330 236° Southwest 442 509 38,000  Level FlightAware
10:47PM 39.3560 -81.0230 236° Southwest 443 510 38,000  Level FlightAware
10:47PM 39.3130 -81.1040 236° Southwest 443 510 38,000  Level FlightAware
10:48PM 39.2630 -81.2010 236° Southwest 444 511 38,000  Level FlightAware
10:49PM 39.2130 -81.2960 236° Southwest 446 513 38,000  Level FlightAware
10:49PM 39.1710 -81.3770 236° Southwest 446 513 38,000  Level FlightAware
10:50PM 39.1140 -81.4850 236° Southwest 447 514 38,000  Level FlightAware
10:51PM 39.0630 -81.5820 236° Southwest 449 517 38,000  Level FlightAware
10:52PM 39.0170 -81.6680 235° Southwest 451 519 38,000  Level FlightAware
10:52PM 38.9690 -81.7590 236° Southwest 451 519 38,000  Level FlightAware
10:53PM 38.9170 -81.8570 236° Southwest 453 521 38,000  Level FlightAware
10:54PM 38.8680 -81.9450 234° Southwest 454 522 38,000  Level FlightAware
10:54PM 38.8130 -82.0490 236° Southwest 454 522 38,000  Level FlightAware
10:55PM 38.7670 -82.1360 236° Southwest 455 524 38,000  Level FlightAware
10:56PM 38.7180 -82.2270 235° Southwest 455 524 38,000  Level FlightAware
10:57PM 38.6660 -82.3220 235° Southwest 454 522 38,000  Level FlightAware
10:57PM 38.6220 -82.4010 235° Southwest 454 522 38,000  Level FlightAware
10:58PM 38.5700 -82.4980 236° Southwest 452 520 38,000  Level FlightAware
10:59PM 38.5180 -82.5950 236° Southwest 451 519 38,000  Level FlightAware
10:59PM 38.4680 -82.6860 235° Southwest 448 516 38,000  Level FlightAware
11:00PM 38.4170 -82.7790 235° Southwest 445 512 38,000  Level FlightAware
11:01PM 38.3680 -82.8660 234° Southwest 442 509 38,000  Level FlightAware
11:01PM 38.3140 -82.9640 235° Southwest 439 505 38,000  Level FlightAware
11:02PM 38.2670 -83.0510 235° Southwest 437 503 38,000  Level FlightAware
11:03PM 38.2200 -83.1330 234° Southwest 437 503 38,000  Level FlightAware
11:03PM 38.1730 -83.2190 235° Southwest 438 504 38,000  Level FlightAware
11:04PM 38.1220 -83.3090 234° Southwest 437 503 38,000  Level FlightAware
11:05PM 38.0690 -83.4050 235° Southwest 437 503 38,000  Level FlightAware
11:06PM 38.0320 -83.4690 234° Southwest 437 503 38,000  Level FlightAware
11:06PM 37.9920 -83.5390 234° Southwest 437 503 38,000  Level FlightAware
11:07PM 37.9420 -83.6270 234° Southwest 437 503 38,000  Level FlightAware
11:08PM 37.9010 -83.6980 234° Southwest 437 503 38,000  Level FlightAware
11:08PM 37.8020 -83.8090 222° Southwest 446 513 38,000  Level FlightAware
11:09PM 37.7480 -83.8800 226° Southwest 445 512 38,000  Level FlightAware
11:10PM 37.6990 -83.9440 226° Southwest 445 512 38,000  Level FlightAware
11:11PM 37.6200 -84.0610 230° Southwest 445 512 38,000  Level FlightAware
11:11PM 37.5730 -84.1460 235° Southwest 444 511 38,000  Level FlightAware
11:12PM 37.5290 -84.2250 235° Southwest 445 512 38,000  Level FlightAware
11:13PM 37.4890 -84.2970 235° Southwest 445 512 38,000  Level FlightAware
11:13PM 37.4480 -84.3700 235° Southwest 445 512 38,000  Level FlightAware
11:14PM 37.3980 -84.4600 235° Southwest 445 512 38,000  Level FlightAware
11:15PM 37.3580 -84.5320 235° Southwest 445 512 38,000  Level FlightAware
11:15PM 37.3028 -84.6379 237° Southwest 443 510 38,000  Level FlightAware ADS-B
11:16PM 37.2524 -84.7287 235° Southwest 443 510 38,000  Level FlightAware ADS-B
11:16PM 37.2109 -84.8046 236° Southwest 443 510 38,000  Level FlightAware ADS-B
11:17PM 37.1682 -84.8805 235° Southwest 443 510 38,000  Level FlightAware ADS-B
11:17PM 37.1323 -84.9456 235° Southwest 443 510 38,000  Level FlightAware ADS-B
11:18PM 37.0971 -85.0087 235° Southwest 443 510 38,000  Level FlightAware ADS-B
11:18PM 37.0601 -85.0740 235° Southwest 443 510 38,000  Level FlightAware ADS-B
11:19PM 37.0113 -85.1618 235° Southwest 442 509 38,000  Level FlightAware ADS-B
11:20PM 36.9630 -85.2473 235° Southwest 441 507 38,000  Level FlightAware ADS-B
11:21PM 36.9125 -85.3364 235° Southwest 439 505 38,000  Level FlightAware ADS-B
11:21PM 36.8755 -85.4027 235° Southwest 439 505 38,000  Level FlightAware ADS-B
11:22PM 36.8420 -85.4610 234° Southwest 437 503 38,000  Level FlightAware
11:22PM 36.8250 -85.4917 235° Southwest 438 504 38,000  Level FlightAware ADS-B
11:22PM 36.7950 -85.5440 234° Southwest 438 504 38,000  Level FlightAware
11:23PM 36.7682 -85.5905 234° Southwest 438 504 38,000  Level FlightAware ADS-B
11:23PM 36.7324 -85.6544 235° Southwest 438 504 38,000  Level FlightAware ADS-B
11:24PM 36.6971 -85.7161 235° Southwest 438 504 38,000  Level FlightAware ADS-B
11:24PM 36.6604 -85.7800 234° Southwest 438 504 38,000  Level FlightAware ADS-B
11:25PM 36.6235 -85.8458 235° Southwest 438 504 38,000  Level FlightAware ADS-B
11:25PM 36.5890 -85.9050 234° Southwest 438 504 38,000  Level FlightAware
11:26PM 36.5350 -85.9980 234° Southwest 438 504 38,000  Level FlightAware
11:27PM 36.4880 -86.0810 235° Southwest 437 503 38,000  Level FlightAware
11:27PM 36.4400 -86.1630 234° Southwest 437 503 38,000  Level FlightAware
11:28PM 36.3900 -86.2510 235° Southwest 436 502 38,000  Level FlightAware
11:29PM 36.3444 -86.3281 234° Southwest 438 504 38,000  Level FlightAware ADS-B
11:29PM 36.2950 -86.4140 235° Southwest 438 504 38,000  Level FlightAware
11:30PM 36.2723 -86.4526 234° Southwest 438 504 38,000  Level FlightAware ADS-B
11:31PM 36.1940 -86.5872 234° Southwest 440 506 38,000  Level FlightAware ADS-B
11:32PM 36.1400 -86.6850 236° Southwest 438 504 38,000  Level FlightAware
11:32PM 36.1080 -86.7740 246° West 436 502 38,000  Level FlightAware
11:33PM 36.0760 -86.8770 249° West 436 502 38,000  Level FlightAware
11:34PM 36.0441 -86.9767 248° West 437 503 38,000  Level FlightAware ADS-B
11:34PM 36.0217 -87.0462 248° West 437 503 38,000  Level FlightAware ADS-B
11:35PM 35.9993 -87.1157 248° West 437 503 38,000  Level FlightAware ADS-B
11:35PM 35.9642 -87.2249 248° West 439 505 38,000  Level FlightAware ADS-B
11:36PM 35.9382 -87.3064 249° West 440 506 38,000 -660 Level FlightAware ADS-B
11:37PM 35.8880 -87.4610 248° West 443 510 36,900 -1,080 Descending FlightAware
11:38PM 35.8590 -87.5520 249° West 445 512 36,100 -1,320 Descending FlightAware
11:39PM 35.8220 -87.6630 248° West 447 514 35,100 -1,320 Descending FlightAware
11:39PM 35.7920 -87.7550 248° West 448 516 34,300 -960 Descending FlightAware
11:40PM 35.7560 -87.8660 248° West 441 507 33,700 -1,380 Descending FlightAware
11:41PM 35.7190 -87.9750 247° West 444 511 32,200 -1,020 Descending FlightAware
11:42PM 35.6870 -88.0680 247° West 444 511 32,200  Level FlightAware
11:42PM 35.6600 -88.1470 247° West 444 511 32,200  Level FlightAware
11:43PM 35.6330 -88.2270 247° West 444 511 32,200  Level FlightAware
11:44PM 35.6060 -88.3060 247° West 444 511 32,200  Level FlightAware
11:44PM 35.5780 -88.3850 246° West 444 511 32,200  Level FlightAware
11:45PM 35.5440 -88.4830 247° West 444 511 32,200  Level FlightAware
11:46PM 35.5170 -88.5620 247° West 444 511 32,200  Level FlightAware
11:46PM 35.4900 -88.6410 247° West 444 511 32,200  Level FlightAware
11:47PM 35.4620 -88.7200 247° West 444 511 32,200  Level FlightAware
11:48PM 35.4350 -88.7990 247° West 444 511 32,200  Level FlightAware
11:49PM 35.4010 -88.8980 247° West 444 511 32,200  Level FlightAware
11:49PM 35.3740 -88.9770 247° West 444 511 32,200  Level FlightAware
11:50PM 35.3460 -89.0560 247° West 444 511 32,200  Level FlightAware
11:51PM 35.3190 -89.1340 247° West 444 511 32,200 -17,880 Level FlightAware
11:51PM 35.0833 -89.0167 247° West 288 331 10,200 -24,480 Descending KMEM
11:51PM 35.0647 -89.0278 206° Southwest 305 351 10,200 -720 Level Memphis Center
11:52PM 35.0342 -89.0992 242° Southwest 263 303 9,300 -1,080 Descending Memphis Center
11:53PM 35.0372 -89.1878 272° West 243 280 8,100 -1,200 Descending Memphis Center
11:54PM 35.0400 -89.2692 272° West 249 287 6,900 -1,080 Descending Memphis Center
11:55PM 35.0386 -89.3553 269° West 249 287 6,000 -480 Descending Memphis Center
11:56PM 35.0414 -89.4414 272° West 254 292 6,000 -180 Level Memphis Center
11:57PM 35.0464 -89.5328 274° West 254 292 5,700 -840 Descending Memphis Center
11:58PM 35.0489 -89.6189 272° West 254 292 4,400 -900 Descending Memphis Center
11:59PM 35.0514 -89.6950 272° West 249 287 4,000 -420 Descending Memphis Center
12:00AM 35.0539 -89.7558 273° West 206 237 3,600 -660 Descending Memphis Center
12:01AM 35.0542 -89.8042 270° West 164 189 2,700 -840 Descending Memphis Center
12:02AM 35.0564 -89.8572 273° West 154 177 2,000 -780 Descending Memphis Center
12:03AM 35.0500 -89.8833 253° West 135 155 1,400 -780 Descending KMEM
12:04AM 35.0500 -89.9167 270° West 130 150 700 -720 Descending KMEM
12:06AM 35.0333 -89.9667 270° West  Level FlightAware Approximate
12:13AM 35.0424 -89.9767 270° West  Level Estimated
12:14AM 35.0424 -89.9767 270° West  Level Estimated
12:15AM 35.0424 -89.9767 270° West  Level Estimated
12:16AM 35.0424 -89.9767 270° West  Level Estimated
12:17AM 35.0424 -89.9767 270° West  Level Estimated
12:18AM 35.0424 -89.9767 270° West  Level Estimated
12:19AM 35.0424 -89.9767 270° West  Level Estimated
12:20AM 35.0424 -89.9767 270° West  Level Estimated